createdAt,value
2018-12-08T00:00:40.681Z,94754.67
2018-12-08T00:03:10.177Z,94752.57
2018-12-08T00:05:39.466Z,94754.95
2018-12-08T00:08:09.043Z,94744.09
2018-12-08T00:10:39.893Z,94744.57
2018-12-08T00:13:09.602Z,94746.15
2018-12-08T00:15:39.117Z,94737.18
2018-12-08T00:18:08.504Z,94734.03
2018-12-08T00:20:37.996Z,94736.09
2018-12-08T00:23:07.892Z,94731.08
2018-12-08T00:25:37.496Z,94733.21
2018-12-08T00:28:06.935Z,94726.91
2018-12-08T00:30:47.319Z,94726.76
2018-12-08T00:33:16.903Z,94719.05
2018-12-08T00:35:46.426Z,94713.52
2018-12-08T00:38:16.062Z,94723.12
2018-12-08T00:40:45.763Z,94716.47
2018-12-08T00:43:15.271Z,94707.42
2018-12-08T00:45:44.849Z,94707.26
2018-12-08T00:48:14.187Z,94711.97
2018-12-08T00:50:43.659Z,94712.99
2018-12-08T00:53:13.320Z,94714.44
2018-12-08T00:55:42.771Z,94722.67
2018-12-08T00:58:12.202Z,94718.05
2018-12-08T01:00:41.533Z,94717.57
2018-12-08T01:03:11.160Z,94713.73
2018-12-08T01:05:40.964Z,94709.76
2018-12-08T01:08:10.403Z,94698.00
2018-12-08T01:10:39.703Z,94696.16
2018-12-08T01:13:09.536Z,94696.92
2018-12-08T01:15:38.883Z,94692.90
2018-12-08T01:18:08.425Z,94691.97
2018-12-08T01:20:37.756Z,94688.86
2018-12-08T01:23:07.084Z,94686.84
2018-12-08T01:25:36.771Z,94689.27
2018-12-08T01:28:06.165Z,94684.16
2018-12-08T01:30:35.728Z,94688.33
2018-12-08T01:33:05.183Z,94675.20
2018-12-08T01:35:34.492Z,94674.22
2018-12-08T01:38:03.884Z,94674.92
2018-12-08T01:40:33.496Z,94671.98
2018-12-08T01:43:02.945Z,94666.86
2018-12-08T01:45:32.414Z,94664.52
2018-12-08T01:48:01.793Z,94659.23
2018-12-08T01:50:31.371Z,94651.25
2018-12-08T01:53:00.891Z,94647.78
2018-12-08T01:55:30.341Z,94648.80
2018-12-08T01:57:59.792Z,94648.42
2018-12-08T02:00:29.447Z,94640.61
2018-12-08T02:02:58.993Z,94640.27
2018-12-08T02:05:28.555Z,94637.95
2018-12-08T02:07:58.290Z,94636.63
2018-12-08T02:10:28.051Z,94640.20
2018-12-08T02:12:57.321Z,94636.00
2018-12-08T02:15:27.108Z,94636.02
2018-12-08T02:17:56.816Z,94626.08
2018-12-08T02:20:26.626Z,94632.17
2018-12-08T02:22:56.301Z,94621.95
2018-12-08T02:25:25.825Z,94620.66
2018-12-08T02:27:55.450Z,94616.89
2018-12-08T02:30:25.181Z,94606.78
2018-12-08T02:32:54.786Z,94611.16
2018-12-08T02:35:24.473Z,94620.19
2018-12-08T02:37:53.942Z,94621.88
2018-12-08T02:40:23.454Z,94619.58
2018-12-08T02:42:52.930Z,94618.91
2018-12-08T02:45:22.671Z,94616.94
2018-12-08T02:47:52.264Z,94611.70
2018-12-08T02:50:21.982Z,94609.69
2018-12-08T02:52:51.659Z,94611.41
2018-12-08T02:55:21.318Z,94602.75
2018-12-08T02:57:50.708Z,94605.37
2018-12-08T03:00:20.401Z,94603.23
2018-12-08T03:02:49.935Z,94598.98
2018-12-08T03:05:19.612Z,94600.50
2018-12-08T03:07:49.073Z,94605.06
2018-12-08T03:10:18.742Z,94598.31
2018-12-08T03:12:48.493Z,94607.13
2018-12-08T03:15:18.055Z,94602.30
2018-12-08T03:17:47.592Z,94607.74
2018-12-08T03:20:17.102Z,94610.66
2018-12-08T03:22:46.689Z,94605.66
2018-12-08T03:25:16.293Z,94601.97
2018-12-08T03:27:46.077Z,94607.66
2018-12-08T03:30:15.814Z,94606.72
2018-12-08T03:32:45.658Z,94602.13
2018-12-08T03:35:15.006Z,94608.45
2018-12-08T03:37:44.338Z,94608.77
2018-12-08T03:40:13.946Z,94609.58
2018-12-08T03:42:43.329Z,94593.08
2018-12-08T03:45:13.943Z,94597.61
2018-12-08T03:47:43.407Z,94510.12
2018-12-08T03:50:13.499Z,94594.67
2018-12-08T03:52:42.912Z,94585.83
2018-12-08T03:55:12.567Z,94585.66
2018-12-08T03:57:42.137Z,94588.17
2018-12-08T04:00:11.553Z,94580.03
2018-12-08T04:02:42.379Z,94590.98
2018-12-08T04:05:11.967Z,94589.67
2018-12-08T04:07:41.452Z,94589.09
2018-12-08T04:10:11.286Z,94580.20
2018-12-08T04:12:41.875Z,94581.27
2018-12-08T04:15:11.718Z,94570.95
2018-12-08T04:17:41.380Z,94580.94
2018-12-08T04:20:10.857Z,94582.84
2018-12-08T04:22:40.147Z,94576.75
2018-12-08T04:25:11.656Z,94578.89
2018-12-08T04:27:41.273Z,94574.42
2018-12-08T04:30:10.773Z,94579.45
2018-12-08T04:32:41.439Z,94583.36
2018-12-08T04:35:10.993Z,94585.30
2018-12-08T04:37:40.414Z,94579.28
2018-12-08T04:40:09.995Z,94584.98
2018-12-08T04:42:39.684Z,94581.45
2018-12-08T04:45:09.173Z,94591.13
2018-12-08T04:47:38.921Z,94592.09
2018-12-08T04:50:08.744Z,94585.88
2018-12-08T04:52:38.138Z,94587.10
2018-12-08T04:55:07.826Z,94586.59
2018-12-08T04:57:37.563Z,94590.78
2018-12-08T05:00:07.815Z,94591.26
2018-12-08T05:02:37.397Z,94586.05
2018-12-08T05:05:07.172Z,94590.67
2018-12-08T05:07:36.817Z,94590.59
2018-12-08T05:10:07.267Z,94584.16
2018-12-08T05:12:36.844Z,94585.21
2018-12-08T05:15:07.015Z,94581.57
2018-12-08T05:17:36.545Z,94594.32
2018-12-08T05:20:06.526Z,94592.26
2018-12-08T05:22:35.844Z,94593.08
2018-12-08T05:25:05.898Z,94593.20
2018-12-08T05:27:35.295Z,94594.03
2018-12-08T05:30:05.834Z,94595.94
2018-12-08T05:32:35.537Z,94591.14
2018-12-08T05:35:05.318Z,94595.61
2018-12-08T05:37:34.804Z,94595.31
2018-12-08T05:40:04.916Z,94590.34
2018-12-08T05:42:34.447Z,94593.37
2018-12-08T05:45:05.061Z,94590.47
2018-12-08T05:47:34.384Z,94588.42
2018-12-08T05:50:04.355Z,94590.67
2018-12-08T05:52:34.673Z,94595.73
2018-12-08T05:55:04.506Z,94580.30
2018-12-08T05:57:34.413Z,94593.49
2018-12-08T06:00:04.297Z,94592.89
2018-12-08T06:02:33.508Z,94591.13
2018-12-08T06:05:03.146Z,94597.17
2018-12-08T06:07:32.839Z,94589.84
2018-12-08T06:10:02.900Z,94600.48
2018-12-08T06:12:32.463Z,94599.65
2018-12-08T06:15:02.055Z,94595.75
2018-12-08T06:17:31.588Z,94594.48
2018-12-08T06:20:01.238Z,94597.97
2018-12-08T06:22:30.910Z,94600.62
2018-12-08T06:25:00.542Z,94596.61
2018-12-08T06:28:34.996Z,94599.16
2018-12-08T06:31:04.500Z,94604.30
2018-12-08T06:33:34.019Z,94603.81
2018-12-08T06:36:03.764Z,94598.86
2018-12-08T06:38:33.262Z,94601.45
2018-12-08T06:41:03.209Z,94602.59
2018-12-08T06:43:32.752Z,94609.22
2018-12-08T06:46:02.447Z,94608.05
2018-12-08T06:48:32.068Z,94614.30
2018-12-08T06:51:01.607Z,94617.77
2018-12-08T06:53:31.775Z,94617.98
2018-12-08T06:56:01.342Z,94608.80
2018-12-08T06:58:30.932Z,94607.33
2018-12-08T07:01:00.668Z,94603.91
2018-12-08T07:03:30.359Z,94601.99
2018-12-08T07:05:59.713Z,94599.00
2018-12-08T07:08:29.168Z,94597.03
2018-12-08T07:10:58.698Z,94602.91
2018-12-08T07:13:28.242Z,94588.47
2018-12-08T07:15:57.859Z,94590.03
2018-12-08T07:18:27.484Z,94577.01
2018-12-08T07:20:56.845Z,94582.23
2018-12-08T07:23:26.582Z,94582.33
2018-12-08T07:25:56.110Z,94572.28
2018-12-08T07:28:25.681Z,94568.50
2018-12-08T07:30:55.232Z,94564.69
2018-12-08T07:33:24.667Z,94570.14
2018-12-08T07:35:54.160Z,94561.12
2018-12-08T07:38:23.863Z,94558.80
2018-12-08T07:40:53.417Z,94564.15
2018-12-08T07:43:22.648Z,94556.34
2018-12-08T07:45:51.948Z,94565.11
2018-12-08T07:48:21.608Z,94571.25
2018-12-08T07:50:51.328Z,94567.48
2018-12-08T07:53:20.896Z,94573.87
2018-12-08T07:55:50.731Z,94574.45
2018-12-08T07:58:20.284Z,94562.64
2018-12-08T08:00:49.850Z,94574.19
2018-12-08T08:03:19.433Z,94569.04
2018-12-08T08:05:49.087Z,94562.67
2018-12-08T08:08:18.772Z,94557.43
2018-12-08T08:10:48.211Z,94556.14
2018-12-08T08:13:17.559Z,94553.37
2018-12-08T08:15:47.614Z,94561.36
2018-12-08T08:18:16.979Z,94554.81
2018-12-08T08:20:46.436Z,94563.22
2018-12-08T08:23:15.872Z,94558.68
2018-12-08T08:25:45.342Z,94556.70
2018-12-08T08:28:14.854Z,94545.70
2018-12-08T08:30:44.568Z,94550.15
2018-12-08T08:33:13.866Z,94542.65
2018-12-08T08:35:43.488Z,94544.34
2018-12-08T08:38:12.804Z,94538.08
2018-12-08T08:40:42.084Z,94544.92
2018-12-08T08:43:11.560Z,94538.95
2018-12-08T08:45:41.123Z,94544.01
2018-12-08T08:48:10.520Z,94545.30
2018-12-08T08:50:40.073Z,94546.17
2018-12-08T08:53:09.874Z,94546.39
2018-12-08T08:55:39.613Z,94555.92
2018-12-08T08:58:09.293Z,94555.00
2018-12-08T09:00:38.677Z,94547.73
2018-12-08T09:03:08.295Z,94542.45
2018-12-08T09:05:37.811Z,94542.88
2018-12-08T09:08:07.361Z,94537.03
2018-12-08T09:10:36.748Z,94542.64
2018-12-08T09:13:06.232Z,94545.89
2018-12-08T09:15:35.555Z,94531.97
2018-12-08T09:18:05.304Z,94530.23
2018-12-08T09:20:34.973Z,94525.72
2018-12-08T09:23:04.345Z,94522.06
2018-12-08T09:25:34.003Z,94521.23
2018-12-08T09:28:03.625Z,94510.38
2018-12-08T09:30:33.104Z,94503.96
2018-12-08T09:33:02.463Z,94501.97
2018-12-08T09:35:32.183Z,94443.14
2018-12-08T09:38:01.668Z,94497.80
2018-12-08T09:40:31.276Z,94495.05
2018-12-08T09:43:00.622Z,94497.63
2018-12-08T09:45:30.000Z,94498.48
2018-12-08T09:47:59.327Z,94487.12
2018-12-08T09:50:29.026Z,94483.89
2018-12-08T09:53:09.582Z,94482.41
2018-12-08T09:55:39.317Z,94477.67
2018-12-08T09:58:08.901Z,94477.81
2018-12-08T10:00:38.555Z,94471.69
2018-12-08T10:03:08.144Z,94466.79
2018-12-08T10:05:37.691Z,94461.02
2018-12-08T10:08:07.384Z,94464.91
2018-12-08T10:10:38.280Z,94456.36
2018-12-08T10:13:07.824Z,94452.02
2018-12-08T10:15:37.398Z,94455.27
2018-12-08T10:18:07.039Z,94450.23
2018-12-08T10:20:36.664Z,94439.14
2018-12-08T10:23:06.161Z,94436.38
2018-12-08T10:25:35.652Z,94446.59
2018-12-08T10:28:06.225Z,94439.00
2018-12-08T10:30:35.956Z,94437.04
2018-12-08T10:33:05.629Z,94429.30
2018-12-08T10:35:35.615Z,94437.89
2018-12-08T10:38:05.815Z,94409.78
2018-12-08T10:40:35.612Z,94413.13
2018-12-08T10:43:04.942Z,94413.53
2018-12-08T10:45:34.346Z,94408.59
2018-12-08T10:48:03.886Z,94421.72
2018-12-08T10:50:33.432Z,94409.11
2018-12-08T10:53:04.839Z,94398.67
2018-12-08T10:55:34.466Z,94393.02
2018-12-08T10:58:04.027Z,94400.22
2018-12-08T11:00:38.795Z,94392.92
2018-12-08T11:03:13.472Z,94388.28
2018-12-08T11:05:42.795Z,94377.98
2018-12-08T11:08:12.362Z,94391.52
2018-12-08T11:10:41.767Z,94396.33
2018-12-08T11:13:12.131Z,94385.52
2018-12-08T11:15:41.482Z,94389.19
2018-12-08T11:18:10.904Z,94378.23
2018-12-08T11:20:40.892Z,94368.57
2018-12-08T11:23:10.686Z,94374.75
2018-12-08T11:25:40.080Z,94368.16
2018-12-08T11:28:09.743Z,94362.67
2018-12-08T11:30:39.420Z,94365.36
2018-12-08T11:33:08.889Z,94362.30
2018-12-08T11:35:38.448Z,94357.00
2018-12-08T11:38:07.794Z,94358.47
2018-12-08T11:40:37.538Z,94345.02
2018-12-08T11:43:07.137Z,94336.77
2018-12-08T11:45:36.555Z,94339.38
2018-12-08T11:48:05.928Z,94343.13
2018-12-08T11:50:35.395Z,94349.88
2018-12-08T11:53:05.047Z,94344.48
2018-12-08T11:55:34.690Z,94347.50
2018-12-08T11:58:04.263Z,94349.61
2018-12-08T12:00:33.815Z,94346.86
2018-12-08T12:03:03.368Z,94358.31
2018-12-08T12:05:32.740Z,94350.80
2018-12-08T12:08:02.004Z,94347.70
2018-12-08T12:10:31.634Z,94352.47
2018-12-08T12:13:01.128Z,94353.63
2018-12-08T12:15:30.527Z,94356.66
2018-12-08T12:17:59.982Z,94351.58
2018-12-08T12:20:29.754Z,94346.05
2018-12-08T12:22:59.271Z,94349.56
2018-12-08T12:25:29.169Z,94355.08
2018-12-08T12:27:59.132Z,94352.03
2018-12-08T12:30:28.859Z,94338.38
2018-12-08T12:32:58.191Z,94335.94
2018-12-08T12:35:27.728Z,94333.05
2018-12-08T12:37:57.287Z,94332.06
2018-12-08T12:40:26.738Z,94328.64
2018-12-08T12:42:56.145Z,94322.48
2018-12-08T12:45:25.495Z,94325.56
2018-12-08T12:47:54.873Z,94331.64
2018-12-08T12:50:24.251Z,94329.57
2018-12-08T12:52:54.647Z,94325.78
2018-12-08T12:55:24.077Z,94331.49
2018-12-08T12:57:53.688Z,94333.03
2018-12-08T13:00:23.560Z,94333.28
2018-12-08T13:02:53.189Z,94328.67
2018-12-08T13:05:22.407Z,94328.63
2018-12-08T13:07:51.961Z,94326.42
2018-12-08T13:10:21.216Z,94321.72
2018-12-08T13:12:50.619Z,94320.95
2018-12-08T13:15:20.251Z,94319.07
2018-12-08T13:17:49.585Z,94303.72
2018-12-08T13:20:18.872Z,94307.37
2018-12-08T13:22:48.468Z,94315.90
2018-12-08T13:25:23.534Z,94308.27
2018-12-08T13:27:52.900Z,94316.25
2018-12-08T13:30:22.197Z,94307.91
2018-12-08T13:32:51.865Z,94306.78
2018-12-08T13:35:32.276Z,94311.53
2018-12-08T13:38:08.154Z,94317.08
2018-12-08T13:40:37.566Z,94317.08
2018-12-08T13:43:07.191Z,94311.86
2018-12-08T13:45:36.737Z,94315.67
2018-12-08T13:48:06.172Z,94311.17
2018-12-08T13:50:36.243Z,94308.63
2018-12-08T13:53:05.447Z,94318.38
2018-12-08T13:55:36.032Z,94329.25
2018-12-08T13:58:05.362Z,94337.80
2018-12-08T14:00:35.100Z,94326.62
2018-12-08T14:03:04.630Z,94323.70
2018-12-08T14:05:34.308Z,94331.02
2018-12-08T14:08:03.836Z,94329.81
2018-12-08T14:10:33.621Z,94323.91
2018-12-08T14:13:03.090Z,94338.87
2018-12-08T14:15:32.754Z,94339.61
2018-12-08T14:18:02.026Z,94346.13
2018-12-08T14:20:33.356Z,94352.23
2018-12-08T14:23:02.624Z,94360.80
2018-12-08T14:25:32.002Z,94360.20
2018-12-08T14:28:01.331Z,94360.41
2018-12-08T14:30:30.982Z,94356.62
2018-12-08T14:33:00.447Z,94351.89
2018-12-08T14:35:30.075Z,94357.95
2018-12-08T14:37:59.552Z,94357.36
2018-12-08T14:40:29.459Z,94352.33
2018-12-08T14:42:58.746Z,94357.55
2018-12-08T14:45:28.568Z,94278.46
2018-12-08T14:47:58.190Z,94336.80
2018-12-08T14:50:27.492Z,94332.63
2018-12-08T14:52:56.995Z,94338.56
2018-12-08T14:55:26.500Z,94333.83
2018-12-08T14:57:55.777Z,94335.14
2018-12-08T15:00:25.203Z,94336.27
2018-12-08T15:02:55.503Z,94327.48
2018-12-08T15:05:25.066Z,94347.30
2018-12-08T15:07:54.793Z,94350.32
2018-12-08T15:10:24.339Z,94360.69
2018-12-08T15:12:53.796Z,94348.87
2018-12-08T15:15:23.448Z,94343.77
2018-12-08T15:17:53.388Z,94341.52
2018-12-08T15:20:22.742Z,94344.72
2018-12-08T15:22:52.204Z,94345.05
2018-12-08T15:25:21.891Z,94341.61
2018-12-08T15:27:51.388Z,94348.66
2018-12-08T15:30:21.006Z,94353.63
2018-12-08T15:32:50.682Z,94359.75
2018-12-08T15:35:20.424Z,94357.50
2018-12-08T15:37:49.770Z,94360.03
2018-12-08T15:40:19.076Z,94360.95
2018-12-08T15:42:48.305Z,94363.08
2018-12-08T15:45:17.773Z,94364.45
2018-12-08T15:47:47.359Z,94361.86
2018-12-08T15:50:17.476Z,94359.95
2018-12-08T15:52:46.885Z,94351.73
2018-12-08T15:55:16.263Z,94350.18
2018-12-08T15:57:45.629Z,94334.38
2018-12-08T16:00:15.439Z,94331.02
2018-12-08T16:02:45.002Z,94333.41
2018-12-08T16:05:14.767Z,94328.85
2018-12-08T16:07:44.364Z,94327.55
2018-12-08T16:10:14.149Z,94328.66
2018-12-08T16:12:43.670Z,94333.02
2018-12-08T16:15:13.243Z,94331.75
2018-12-08T16:17:42.875Z,94330.72
2018-12-08T16:20:13.800Z,94332.36
2018-12-08T16:22:43.650Z,94330.95
2018-12-08T16:25:13.155Z,94326.08
2018-12-08T16:27:42.520Z,94330.02
2018-12-08T16:30:11.943Z,94334.80
2018-12-08T16:32:41.459Z,94338.70
2018-12-08T16:35:11.196Z,94342.39
2018-12-08T16:37:41.722Z,94341.48
2018-12-08T16:40:11.686Z,94343.34
2018-12-08T16:42:41.147Z,94341.81
2018-12-08T16:45:11.116Z,94336.44
2018-12-08T16:47:40.927Z,94336.62
2018-12-08T16:50:11.058Z,94336.75
2018-12-08T16:52:42.272Z,94340.34
2018-12-08T16:55:12.047Z,94344.38
2018-12-08T16:57:41.882Z,94330.41
2018-12-08T17:00:11.573Z,94345.92
2018-12-08T17:02:41.190Z,94339.99
2018-12-08T17:05:11.280Z,94330.22
2018-12-08T17:07:40.626Z,94337.12
2018-12-08T17:10:10.166Z,94334.09
2018-12-08T17:12:39.684Z,94333.40
2018-12-08T17:15:09.310Z,94333.70
2018-12-08T17:17:38.678Z,94337.11
2018-12-08T17:20:10.732Z,94338.98
2018-12-08T17:22:40.687Z,94340.17
2018-12-08T17:25:09.972Z,94338.91
2018-12-08T17:27:39.569Z,94336.80
2018-12-08T17:30:09.159Z,94337.91
2018-12-08T17:32:38.558Z,94339.71
2018-12-08T17:35:09.018Z,94339.04
2018-12-08T17:37:38.594Z,94340.61
2018-12-08T17:40:09.284Z,94348.05
2018-12-08T17:42:38.960Z,94353.44
2018-12-08T17:45:09.115Z,94354.05
2018-12-08T17:47:38.529Z,94358.95
2018-12-08T17:50:08.776Z,94364.41
2018-12-08T17:52:38.345Z,94361.34
2018-12-08T17:55:07.958Z,94364.50
2018-12-08T17:57:37.192Z,94356.69
2018-12-08T18:00:07.247Z,94352.27
2018-12-08T18:02:36.543Z,94350.11
2018-12-08T18:05:06.702Z,94349.87
2018-12-08T18:07:36.570Z,94344.81
2018-12-08T18:10:07.441Z,94354.23
2018-12-08T18:12:36.900Z,94343.91
2018-12-08T18:15:06.381Z,94342.84
2018-12-08T18:17:36.173Z,94348.39
2018-12-08T18:20:06.091Z,94336.44
2018-12-08T18:22:36.930Z,94341.97
2018-12-08T18:25:06.299Z,94339.91
2018-12-08T18:27:35.972Z,94343.22
2018-12-08T18:30:07.154Z,94335.36
2018-12-08T18:32:36.407Z,94343.61
2018-12-08T18:35:06.162Z,94339.05
2018-12-08T18:37:35.936Z,94338.73
2018-12-08T18:40:05.692Z,94339.16
2018-12-08T18:42:35.636Z,94344.41
2018-12-08T18:45:05.367Z,94339.05
2018-12-08T18:47:34.957Z,94337.06
2018-12-08T18:50:05.332Z,94338.87
2018-12-08T18:52:34.956Z,94337.25
2018-12-08T18:55:04.603Z,94339.05
2018-12-08T18:57:34.407Z,94340.06
2018-12-08T19:00:04.278Z,94349.70
2018-12-08T19:02:34.633Z,94344.36
2018-12-08T19:05:04.496Z,94339.63
2018-12-08T19:07:34.803Z,94338.34
2018-12-08T19:10:04.679Z,94337.66
2018-12-08T19:12:33.975Z,94346.11
2018-12-08T19:15:04.204Z,94344.22
2018-12-08T19:17:33.755Z,94342.39
2018-12-08T19:20:03.524Z,94349.45
2018-12-08T19:22:32.744Z,94342.55
2018-12-08T19:25:02.336Z,94341.77
2018-12-08T19:27:32.283Z,94336.20
2018-12-08T19:30:01.795Z,94332.94
2018-12-08T19:32:31.080Z,94339.37
2018-12-08T19:35:00.888Z,94332.16
2018-12-08T19:37:30.468Z,94329.72
2018-12-08T19:40:00.901Z,94336.02
2018-12-08T19:42:30.481Z,94340.11
2018-12-08T19:44:59.911Z,94337.89
2018-12-08T19:47:29.349Z,94348.04
2018-12-08T19:49:59.042Z,94356.91
2018-12-08T19:52:28.652Z,94346.97
2018-12-08T19:54:58.372Z,94351.09
2018-12-08T19:57:28.172Z,94357.03
2018-12-08T19:59:57.510Z,94356.41
2018-12-08T20:02:26.831Z,94347.72
2018-12-08T20:04:56.439Z,94348.16
2018-12-08T20:07:25.912Z,94351.40
2018-12-08T20:09:55.663Z,94356.02
2018-12-08T20:12:25.434Z,94346.78
2018-12-08T20:14:55.065Z,94349.51
2018-12-08T20:17:24.540Z,94356.64
2018-12-08T20:19:54.345Z,94348.92
2018-12-08T20:22:23.952Z,94352.16
2018-12-08T20:24:53.599Z,94338.02
2018-12-08T20:27:23.139Z,94341.78
2018-12-08T20:29:52.552Z,94342.50
2018-12-08T20:32:21.908Z,94346.75
2018-12-08T20:34:52.642Z,94339.53
2018-12-08T20:37:22.463Z,94334.80
2018-12-08T20:39:52.237Z,94330.21
2018-12-08T20:42:21.950Z,94329.91
2018-12-08T20:44:51.664Z,94330.94
2018-12-08T20:47:21.160Z,94329.92
2018-12-08T20:49:51.093Z,94326.08
2018-12-08T20:52:20.575Z,94333.94
2018-12-08T20:54:50.187Z,94326.41
2018-12-08T20:57:19.891Z,94322.60
2018-12-08T20:59:49.491Z,94319.11
2018-12-08T21:02:18.725Z,94317.50
2018-12-08T21:04:48.385Z,94317.23
2018-12-08T21:07:19.079Z,94321.52
2018-12-08T21:09:48.351Z,94316.44
2018-12-08T21:12:18.147Z,94321.70
2018-12-08T21:14:47.867Z,94322.96
2018-12-08T21:17:17.476Z,94319.78
2018-12-08T21:19:47.184Z,94314.64
2018-12-08T21:22:16.996Z,94318.72
2018-12-08T21:24:46.631Z,94327.08
2018-12-08T21:27:16.258Z,94321.72
2018-12-08T21:29:45.634Z,94331.01
2018-12-08T21:32:14.863Z,94330.66
2018-12-08T21:34:45.469Z,94330.63
2018-12-08T21:37:15.061Z,94335.09
2018-12-08T21:39:44.584Z,94332.14
2018-12-08T21:42:14.037Z,94329.66
2018-12-08T21:44:43.336Z,94322.42
2018-12-08T21:47:12.909Z,94318.24
2018-12-08T21:49:42.579Z,94313.42
2018-12-08T21:52:12.130Z,94317.59
2018-12-08T21:54:41.812Z,94317.67
2018-12-08T21:57:11.509Z,94312.80
2018-12-08T21:59:40.956Z,94318.07
2018-12-08T22:02:10.730Z,94315.68
2018-12-08T22:04:40.276Z,94318.33
2018-12-08T22:07:09.831Z,94327.04
2018-12-08T22:09:39.340Z,94330.10
2018-12-08T22:12:09.000Z,94336.73
2018-12-08T22:17:26.836Z,94333.00
2018-12-08T22:19:56.425Z,94335.45
2018-12-08T22:22:26.232Z,94334.77
2018-12-08T22:24:55.908Z,94334.77
2018-12-08T22:27:25.225Z,94332.58
2018-12-08T22:29:54.552Z,94325.55
2018-12-08T22:32:23.944Z,94328.77
2018-12-08T22:34:53.452Z,94323.22
2018-12-08T22:37:22.750Z,94318.38
2018-12-08T22:39:52.344Z,94321.56
2018-12-08T22:42:21.809Z,94308.03
2018-12-08T22:44:51.384Z,94307.81
2018-12-08T22:47:20.690Z,94305.23
2018-12-08T22:49:50.193Z,94306.81
2018-12-08T22:52:19.913Z,94303.44
2018-12-08T22:54:49.679Z,94300.78
2018-12-08T22:57:19.293Z,94298.41
2018-12-08T22:59:48.668Z,94295.04
2018-12-08T23:02:18.454Z,94216.94
2018-12-08T23:04:48.060Z,94286.49
2018-12-08T23:07:17.696Z,94296.00
2018-12-08T23:09:47.160Z,94299.69
2018-12-08T23:12:16.687Z,94298.61
2018-12-08T23:14:46.336Z,94293.31
2018-12-08T23:17:15.749Z,94296.28
2018-12-08T23:19:45.517Z,94291.92
2018-12-08T23:22:15.097Z,94292.89
2018-12-08T23:24:44.798Z,94297.68
2018-12-08T23:27:14.303Z,94293.11
2018-12-08T23:29:43.603Z,94301.74
2018-12-08T23:32:13.055Z,94297.50
2018-12-08T23:34:42.723Z,94304.34
2018-12-08T23:37:12.355Z,94303.67
2018-12-08T23:39:41.980Z,94306.84
2018-12-08T23:42:12.500Z,94308.07
2018-12-08T23:44:42.016Z,94313.23
2018-12-08T23:47:11.688Z,94317.21
2018-12-08T23:49:41.321Z,94323.86
2018-12-08T23:52:11.071Z,94323.37
2018-12-08T23:54:40.793Z,94330.30
2018-12-08T23:57:10.292Z,94326.92
2018-12-08T23:59:39.658Z,94331.78
